Time;durP1;ratioP1;P1;durP2;ratioP2;P2;SDS_P1;SDS_P2;PMS_P1;PMS_P2;Temp;Humidity;BMP_temperature;BMP_pressure;BME280_temperature;BME280_humidity;BME280_pressure;Samples;Min_cycle;Max_cycle;Signal;HPM_P1;HPM_P2
2022/06/06 00:01:49;;;;;;;5.30;3.00;;;17.10;99.90;;;17.30;66.18;97761.94;5042427;28;20055;-47
2022/06/06 00:04:18;;;;;;;5.78;2.72;;;17.00;99.90;;;17.30;66.04;97756.56;5043020;28;20057;-45
2022/06/06 00:06:47;;;;;;;3.22;2.60;;;17.10;99.90;;;17.30;66.15;97761.94;5042927;28;20060;-47
2022/06/06 00:09:16;;;;;;;5.93;2.92;;;17.10;99.90;;;17.31;65.93;97749.31;5039928;28;20059;-46
2022/06/06 00:11:44;;;;;;;3.08;2.42;;;17.00;99.90;;;17.29;66.04;97749.53;5042327;28;20287;-46
2022/06/06 00:14:15;;;;;;;3.55;3.17;;;17.10;99.90;;;17.30;66.07;97747.66;5042518;28;20045;-50
2022/06/06 00:16:42;;;;;;;4.20;3.05;;;17.10;99.90;;;17.28;66.19;97749.72;5041312;28;20045;-47
2022/06/06 00:19:12;;;;;;;4.22;2.85;;;17.00;99.90;;;17.28;66.10;97747.03;5041988;28;20389;-51
2022/06/06 00:21:42;;;;;;;3.60;3.15;;;17.10;99.90;;;17.25;66.33;97755.50;5042295;28;20052;-47
2022/06/06 00:24:12;;;;;;;3.75;3.35;;;17.00;99.90;;;17.24;66.31;97749.28;5042047;28;20071;-45
2022/06/06 00:26:40;;;;;;;4.70;2.90;;;17.00;99.90;;;17.26;66.15;97747.22;5042211;28;20045;-46
2022/06/06 00:29:13;;;;;;;3.45;3.15;;;17.10;99.90;;;17.28;66.24;97742.47;5040829;28;20045;-47
2022/06/06 00:37:29;;;;;;;3.40;3.10;;;17.10;99.90;;;17.28;66.37;97744.34;5041994;28;20049;-48
2022/06/06 00:39:57;;;;;;;4.13;3.22;;;17.10;99.90;;;17.29;66.31;97737.91;5042688;28;20053;-44
2022/06/06 00:42:33;;;;;;;3.67;3.38;;;17.10;99.90;;;17.26;66.23;97738.34;5041756;28;20351;-47
2022/06/06 00:45:35;;;;;;;5.45;3.30;;;17.10;99.90;;;17.23;66.14;97733.34;5042163;28;20059;-45
2022/06/06 00:48:08;;;;;;;4.88;3.17;;;17.10;99.90;;;17.23;66.27;97726.09;5041874;28;20053;-45
2022/06/06 00:50:53;;;;;;;3.95;2.88;;;17.00;99.90;;;17.21;66.26;97727.34;5042024;28;20049;-44
2022/06/06 00:53:52;;;;;;;6.18;3.10;;;17.00;99.90;;;17.19;66.37;97721.34;5042565;28;20060;-46
2022/06/06 00:59:40;;;;;;;8.90;3.65;;;17.00;99.90;;;17.22;66.26;97724.47;5045665;28;20058;-44
2022/06/06 01:02:11;;;;;;;3.85;2.80;;;17.00;99.90;;;17.22;66.46;97719.06;5046078;28;20244;-47
2022/06/06 01:04:42;;;;;;;4.72;2.88;;;17.00;99.90;;;17.19;66.56;97719.47;5044734;28;20046;-45
2022/06/06 01:07:12;;;;;;;4.05;3.13;;;17.00;99.90;;;17.20;66.35;97713.06;5044793;28;20051;-44
2022/06/06 01:09:42;;;;;;;3.85;2.97;;;17.00;99.90;;;17.17;66.60;97715.31;5044113;28;20068;-45
2022/06/06 01:12:18;;;;;;;4.90;2.85;;;17.00;99.90;;;17.15;66.54;97714.69;5044693;28;20045;-48
2022/06/06 01:14:56;;;;;;;4.53;2.85;;;17.00;99.90;;;17.11;66.65;97714.28;5045491;28;20049;-45
2022/06/06 01:18:07;;;;;;;6.38;3.30;;;16.90;99.90;;;17.10;66.77;97713.44;5044424;28;20355;-47
2022/06/06 01:20:53;;;;;;;3.30;2.80;;;16.90;99.90;;;17.10;66.74;97709.94;5045536;28;20243;-47
2022/06/06 01:24:22;;;;;;;3.75;3.28;;;16.90;99.90;;;17.11;66.59;97707.03;5044574;28;20248;-44
2022/06/06 01:27:40;;;;;;;5.47;3.75;;;17.00;99.90;;;17.11;66.57;97698.13;5044948;28;20068;-45
2022/06/06 01:30:16;;;;;;;4.07;3.38;;;16.90;99.90;;;17.09;66.43;97701.03;5043284;28;20049;-46
2022/06/06 01:32:55;;;;;;;4.53;3.08;;;16.90;99.90;;;17.08;66.51;97698.56;5027140;28;20251;-46
2022/06/06 01:35:39;;;;;;;4.15;2.85;;;16.80;99.90;;;17.06;66.69;97696.06;5037540;28;20064;-45
2022/06/06 01:38:09;;;;;;;5.80;3.35;;;16.80;99.90;;;17.06;66.69;97695.22;5045170;28;20348;-47
2022/06/06 01:41:05;;;;;;;3.80;3.10;;;16.80;99.90;;;17.02;66.54;97700.19;5043731;28;20071;-47
2022/06/06 01:43:58;;;;;;;4.00;3.08;;;16.80;99.90;;;16.99;66.50;97695.19;5044131;28;20388;-46
2022/06/06 01:46:30;;;;;;;4.53;3.05;;;16.70;99.90;;;16.84;67.10;97705.25;5044126;28;20246;-44
2022/06/06 01:48:58;;;;;;;5.97;3.10;;;16.60;99.90;;;16.84;67.19;97700.72;5043709;28;20059;-45
2022/06/06 01:51:30;;;;;;;3.92;3.10;;;16.50;99.90;;;16.84;67.11;97694.50;5043674;28;20060;-49
2022/06/06 01:53:58;;;;;;;3.33;2.72;;;16.50;99.90;;;16.81;67.06;97698.41;5044503;28;20339;-45
2022/06/06 01:56:38;;;;;;;3.28;2.90;;;16.50;99.90;;;16.80;67.21;97685.97;5044937;28;20046;-46
2022/06/06 01:59:06;;;;;;;3.97;3.42;;;16.50;99.90;;;16.76;67.30;97691.97;5044596;28;20051;-44
2022/06/06 02:01:34;;;;;;;5.57;3.33;;;16.40;99.90;;;16.73;67.29;97691.34;5044708;28;20060;-46
2022/06/06 02:04:02;;;;;;;5.53;3.33;;;16.40;99.90;;;16.72;67.58;97694.22;5044107;28;20042;-45
2022/06/06 02:06:30;;;;;;;4.22;3.00;;;16.40;99.90;;;16.70;67.62;97691.72;5044667;28;20045;-47
2022/06/06 02:08:58;;;;;;;4.10;3.05;;;16.40;99.90;;;16.67;67.67;97686.75;5044253;28;20041;-45
2022/06/06 02:11:28;;;;;;;4.97;2.90;;;16.40;99.90;;;16.67;67.69;97689.44;5044536;28;20045;-44
2022/06/06 02:13:55;;;;;;;6.32;3.28;;;16.40;99.90;;;16.67;67.79;97684.06;5044545;28;20056;-45
2022/06/06 02:16:24;;;;;;;4.25;3.08;;;16.40;99.90;;;16.68;67.90;97693.78;5045215;28;20049;-46
2022/06/06 02:18:53;;;;;;;5.80;3.45;;;16.50;99.90;;;16.70;67.77;97694.41;5043223;28;20243;-47
2022/06/06 02:21:20;;;;;;;6.03;3.53;;;16.50;99.90;;;16.71;67.68;97692.53;5044383;28;20054;-45
2022/06/06 02:23:49;;;;;;;5.30;3.35;;;16.50;99.90;;;16.72;67.56;97691.53;5044006;28;20049;-47
2022/06/06 02:26:17;;;;;;;4.68;2.88;;;16.50;99.90;;;16.74;67.52;97692.16;5045395;28;20235;-47
2022/06/06 02:28:44;;;;;;;5.78;2.97;;;16.50;99.90;;;16.71;67.58;97690.72;5044075;28;20392;-45
2022/06/06 02:31:12;;;;;;;4.65;3.42;;;16.50;99.90;;;16.71;67.58;97684.47;5044638;28;20382;-45
2022/06/06 02:33:40;;;;;;;4.63;3.40;;;16.40;99.90;;;16.69;67.76;97687.38;5044194;28;20131;-45
2022/06/06 02:36:08;;;;;;;4.70;3.05;;;16.40;99.90;;;16.67;67.78;97689.44;5043932;28;20049;-47
2022/06/06 02:38:36;;;;;;;3.78;3.40;;;16.40;99.90;;;16.67;67.76;97686.75;5044064;28;20052;-44
2022/06/06 02:41:10;;;;;;;4.13;3.17;;;16.40;99.90;;;16.65;67.73;97683.44;5044468;28;20041;-47
2022/06/06 02:43:42;;;;;;;4.28;3.55;;;16.40;99.90;;;16.64;67.80;97678.25;5043582;28;20053;-46
2022/06/06 02:46:13;;;;;;;4.90;4.40;;;16.30;99.90;;;16.61;67.80;97670.59;5043850;28;20267;-47
2022/06/06 02:48:41;;;;;;;4.55;3.40;;;16.30;99.90;;;16.58;67.87;97681.75;5043476;28;20344;-47
2022/06/06 02:51:09;;;;;;;4.00;3.40;;;16.30;99.90;;;16.54;67.93;97675.94;5043817;28;20485;-46
2022/06/06 02:53:37;;;;;;;4.55;4.07;;;16.20;99.90;;;16.50;68.09;97685.44;5043818;28;20072;-47
2022/06/06 02:56:05;;;;;;;4.10;3.40;;;16.10;99.90;;;16.44;68.36;97672.75;5042546;28;20047;-46
2022/06/06 02:58:33;;;;;;;4.22;3.83;;;16.10;99.90;;;16.42;68.34;97674.81;5042537;28;20046;-47
2022/06/06 03:01:10;;;;;;;5.10;4.45;;;16.10;99.90;;;16.38;68.55;97671.72;5042483;28;20052;-49
2022/06/06 03:03:40;;;;;;;5.53;4.05;;;16.10;99.90;;;16.40;68.55;97677.72;5044309;28;20056;-45
2022/06/06 03:06:35;;;;;;;6.40;4.72;;;16.10;99.90;;;16.40;68.28;97666.13;5042305;28;20150;-47
2022/06/06 03:09:49;;;;;;;5.70;4.05;;;16.20;99.90;;;16.41;68.36;97676.69;5042616;28;20233;-47
2022/06/06 03:12:36;;;;;;;4.40;3.22;;;16.20;99.90;;;16.45;68.42;97685.19;5043367;28;20336;-45
2022/06/06 03:15:34;;;;;;;5.57;3.90;;;16.20;99.90;;;16.44;68.81;97691.56;5043302;28;20045;-48
2022/06/06 03:21:39;;;;;;;5.30;4.00;;;16.20;99.90;;;16.40;68.76;97701.06;5042274;28;20264;-46
2022/06/06 03:24:26;;;;;;;4.85;4.05;;;16.10;99.90;;;16.42;68.64;97699.84;5042874;28;20061;-46
2022/06/06 03:27:24;;;;;;;4.35;3.80;;;16.20;99.90;;;16.41;68.88;97700.84;5043531;28;20055;-46
2022/06/06 03:30:14;;;;;;;5.35;4.20;;;16.20;99.90;;;16.45;68.79;97707.50;5043499;28;20068;-48
2022/06/06 03:33:01;;;;;;;5.53;4.40;;;16.20;99.90;;;16.47;68.86;97710.81;5041990;28;20041;-47
2022/06/06 03:35:52;;;;;;;6.25;4.53;;;16.20;99.90;;;16.47;68.91;97705.44;5042092;28;20292;-48
2022/06/06 03:38:59;;;;;;;10.35;4.80;;;16.30;99.90;;;16.47;69.13;97713.50;5041406;28;20056;-45
2022/06/06 03:41:36;;;;;;;5.80;5.18;;;16.30;99.90;;;16.52;69.21;97729.88;5043005;28;20245;-46
2022/06/06 03:44:39;;;;;;;5.78;4.40;;;16.30;99.90;;;16.52;69.19;97723.69;5042695;28;20239;-45
2022/06/06 03:47:53;;;;;;;4.82;4.15;;;16.40;99.90;;;16.51;69.20;97727.38;5042376;28;20046;-46
2022/06/06 03:50:33;;;;;;;5.20;4.70;;;16.40;99.90;;;16.53;69.30;97731.50;5042837;28;20045;-49
2022/06/06 03:53:27;;;;;;;5.80;4.57;;;16.30;99.90;;;16.55;69.38;97736.69;5042617;28;20319;-46
2022/06/06 03:56:01;;;;;;;;;;;16.40;99.90;;;16.50;68.87;97736.47;5058333;28;20057;-47
2022/06/06 03:58:32;;;;;;;4.57;4.10;;;16.30;99.90;;;16.47;69.06;97732.31;5042188;28;19917;-46
2022/06/06 04:01:08;;;;;;;4.57;4.07;;;16.20;99.90;;;16.41;68.84;97735.78;5042885;28;20057;-47
2022/06/06 04:03:37;;;;;;;6.00;4.13;;;16.10;99.90;;;16.32;69.09;97731.59;5042568;28;20053;-45
2022/06/06 04:06:06;;;;;;;6.38;4.22;;;16.00;99.90;;;16.28;69.19;97725.78;5043377;28;20045;-45
2022/06/06 04:08:34;;;;;;;6.68;5.10;;;16.00;99.90;;;16.25;69.38;97731.56;5042016;28;20045;-47
2022/06/06 04:11:29;;;;;;;4.97;4.32;;;16.00;99.90;;;16.26;69.24;97737.75;5041675;28;20255;-45
2022/06/06 04:14:09;;;;;;;5.72;4.13;;;16.00;99.90;;;16.30;69.83;97739.00;5042122;28;20041;-47
2022/06/06 04:16:58;;;;;;;7.15;4.32;;;16.10;99.90;;;16.34;69.81;97738.44;5043083;28;20055;-47
2022/06/06 04:19:52;;;;;;;8.50;4.30;;;16.20;99.90;;;16.37;69.80;97739.91;5042033;28;20045;-48
2022/06/06 04:22:39;;;;;;;5.75;4.18;;;16.20;99.90;;;16.39;69.60;97742.41;5042209;28;20067;-46
2022/06/06 04:29:37;;;;;;;4.18;3.65;;;16.20;99.90;;;16.41;69.60;97740.34;5041580;28;20231;-45
2022/06/06 04:32:35;;;;;;;4.38;3.72;;;16.20;99.90;;;16.42;69.67;97734.78;5041026;28;20083;-46
2022/06/06 04:35:43;;;;;;;5.03;4.07;;;16.20;99.90;;;16.50;69.78;97729.25;5042059;28;20138;-45
2022/06/06 04:38:25;;;;;;;5.70;4.13;;;16.40;99.90;;;16.60;69.88;97736.13;5041811;28;20255;-47
2022/06/06 04:41:16;;;;;;;8.48;4.45;;;16.50;99.90;;;16.67;69.88;97726.22;5041198;28;20240;-46
2022/06/06 04:44:03;;;;;;;4.80;3.83;;;16.60;99.90;;;16.71;69.66;97736.41;5041160;28;20357;-44
2022/06/06 04:46:56;;;;;;;4.53;4.03;;;16.60;99.90;;;16.80;69.66;97729.00;5041962;28;20037;-48
2022/06/06 04:49:28;;;;;;;6.57;4.10;;;16.80;99.90;;;16.89;69.57;97735.09;5041418;28;20056;-45
2022/06/06 04:51:58;;;;;;;5.00;3.78;;;16.80;99.90;;;16.96;69.75;97741.31;5040645;28;20259;-45
2022/06/06 04:54:29;;;;;;;4.95;3.80;;;16.90;99.90;;;17.00;69.79;97739.91;5040472;28;20050;-46
2022/06/06 04:57:01;;;;;;;5.50;4.38;;;17.00;99.90;;;17.04;69.65;97735.78;5040869;28;20041;-47
2022/06/06 04:59:31;;;;;;;6.57;4.30;;;17.00;99.90;;;17.11;69.63;97743.84;5040503;28;20049;-48
2022/06/06 05:02:00;;;;;;;4.70;4.22;;;17.10;99.90;;;17.11;69.49;97744.69;5041954;28;20041;-46
2022/06/06 05:04:29;;;;;;;4.72;4.28;;;17.10;99.90;;;17.18;69.41;97735.84;5041796;28;20049;-45
2022/06/06 05:07:55;;;;;;;4.95;4.30;;;17.10;99.90;;;17.17;69.33;97740.38;5041744;28;20063;-49
2022/06/06 05:10:44;;;;;;;5.97;4.80;;;17.10;99.90;;;17.26;69.47;97744.53;5022231;28;20255;-48
2022/06/06 05:13:27;;;;;;;4.57;4.10;;;17.20;99.90;;;17.31;69.46;97742.09;5041662;28;20045;-44
2022/06/06 05:16:39;;;;;;;6.82;4.75;;;17.30;99.90;;;17.32;69.51;97745.59;5041580;28;20046;-45
2022/06/06 05:19:25;;;;;;;6.00;4.60;;;17.30;99.90;;;17.37;69.55;97750.38;5040805;28;20056;-47
2022/06/06 05:21:59;;;;;;;4.82;4.13;;;17.40;99.90;;;17.43;69.59;97745.03;5041791;28;20233;-51
2022/06/06 05:25:10;;;;;;;7.35;3.95;;;17.40;99.90;;;17.51;69.53;97752.91;5041310;28;20045;-48
2022/06/06 05:27:47;;;;;;;5.10;3.85;;;17.60;99.90;;;17.53;69.52;97758.09;5040433;28;20057;-48
2022/06/06 05:30:42;;;;;;;4.32;3.58;;;17.60;99.90;;;17.32;69.21;97767.13;5042892;28;20253;-47
2022/06/06 05:33:33;;;;;;;5.35;3.22;;;17.60;99.90;;;17.42;69.47;97756.81;5041597;28;20233;-48
2022/06/06 05:36:18;;;;;;;4.38;3.92;;;17.60;99.90;;;17.52;69.37;97759.09;5040850;28;20068;-45
2022/06/06 05:39:21;;;;;;;7.05;3.95;;;17.60;99.90;;;17.59;69.24;97765.34;5041723;28;20049;-46
2022/06/06 05:42:27;;;;;;;4.10;3.30;;;17.70;99.90;;;17.63;69.31;97763.09;5044377;28;20049;-47
2022/06/06 05:45:28;;;;;;;4.50;4.07;;;17.80;99.90;;;17.61;69.42;97774.06;5044901;28;20045;-48
2022/06/06 05:48:48;;;;;;;6.03;4.13;;;17.80;99.90;;;17.70;69.44;97775.53;5044672;28;20047;-47
2022/06/06 05:51:40;;;;;;;4.65;3.45;;;18.00;99.90;;;17.77;68.97;97770.16;5045032;28;20055;-48
2022/06/06 05:54:20;;;;;;;5.43;3.80;;;18.00;99.90;;;17.86;68.96;97778.91;5044791;28;20243;-49
2022/06/06 05:57:21;;;;;;;5.78;4.05;;;17.90;99.90;;;17.92;68.96;97780.78;5045390;28;20061;-48
2022/06/06 06:00:17;;;;;;;4.82;3.65;;;18.00;99.90;;;17.97;68.62;97778.31;5044767;28;20041;-46
2022/06/06 06:03:25;;;;;;;6.25;4.60;;;18.10;99.90;;;17.95;68.27;97779.53;5044930;28;20045;-46
2022/06/06 06:06:34;;;;;;;4.88;3.85;;;18.20;99.90;;;18.01;68.40;97784.09;5045193;28;20050;-49
2022/06/06 06:09:14;;;;;;;4.47;3.60;;;18.20;99.90;;;18.04;68.37;97773.75;5043882;28;20065;-47
2022/06/06 06:12:06;;;;;;;5.22;3.92;;;18.20;99.90;;;17.99;68.34;97778.94;5044475;28;20055;-47
2022/06/06 06:14:33;;;;;;;4.65;3.47;;;18.30;99.90;;;18.04;68.65;97776.44;5045152;28;20248;-48
2022/06/06 06:17:02;;;;;;;5.03;4.50;;;18.30;99.90;;;18.05;68.76;97782.69;5044660;28;20049;-46
2022/06/06 06:19:50;;;;;;;5.10;3.90;;;18.40;99.90;;;18.16;68.86;97786.59;5042496;28;20052;-50
2022/06/06 06:22:21;;;;;;;4.55;4.15;;;18.50;99.90;;;18.22;68.69;97794.72;5043459;28;20055;-48
2022/06/06 06:24:56;;;;;;;5.22;3.67;;;18.60;99.90;;;18.28;68.22;97791.19;5043172;28;20320;-46
2022/06/06 06:27:25;;;;;;;4.55;3.92;;;18.70;99.90;;;18.37;68.21;97799.06;5042805;28;20064;-48
2022/06/06 06:29:53;;;;;;;5.80;4.00;;;18.70;99.90;;;18.45;68.19;97806.94;5043212;28;20049;-49
2022/06/06 06:32:48;;;;;;;4.05;3.58;;;18.80;99.90;;;18.60;67.95;97810.25;5044261;28;20108;-48
2022/06/06 06:35:25;;;;;;;4.88;4.28;;;19.00;99.90;;;18.73;67.91;97817.50;5044001;28;20051;-50
2022/06/06 06:38:10;;;;;;;4.22;3.35;;;19.10;99.90;;;18.84;67.79;97821.44;5043279;28;20352;-45
2022/06/06 06:40:50;;;;;;;4.88;3.90;;;19.20;99.90;;;18.85;67.43;97820.41;5044488;28;20056;-50
2022/06/06 06:43:33;;;;;;;5.35;4.18;;;19.30;99.90;;;18.96;67.41;97817.09;5043065;28;20045;-50
2022/06/06 06:46:26;;;;;;;5.00;3.95;;;19.30;99.90;;;19.04;67.23;97811.44;5043968;28;20051;-49
2022/06/06 06:49:22;;;;;;;5.32;3.65;;;19.40;99.90;;;19.14;67.23;97826.38;5042947;28;20054;-46
2022/06/06 06:52:37;;;;;;;4.68;3.92;;;19.60;99.90;;;19.28;67.34;97822.59;5042771;28;20244;-47
2022/06/06 06:55:32;;;;;;;5.22;4.40;;;19.70;99.90;;;19.41;67.04;97833.34;5043375;28;20041;-47
2022/06/06 06:58:38;;;;;;;4.60;3.80;;;19.80;99.90;;;19.51;66.93;97835.59;5043572;28;20136;-49
2022/06/06 07:01:17;;;;;;;4.53;3.60;;;19.90;99.90;;;19.62;66.38;97828.72;5042692;28;20055;-47
2022/06/06 07:10:46;;;;;;;3.83;3.40;;;20.20;99.90;;;19.88;65.92;97826.94;5041644;28;20216;-50
2022/06/06 07:13:46;;;;;;;4.32;3.88;;;20.30;99.90;;;19.79;64.35;97824.50;5042656;28;20109;-51
2022/06/06 07:16:27;;;;;;;4.30;3.85;;;20.30;99.90;;;19.74;64.02;97816.22;5043295;28;20045;-49
2022/06/06 07:19:13;;;;;;;4.20;3.53;;;20.20;99.90;;;19.79;65.09;97818.25;5043170;28;20049;-48
2022/06/06 07:21:47;;;;;;;5.53;3.45;;;20.10;99.90;;;19.82;64.38;97818.66;5043371;28;20362;-47
2022/06/06 07:24:19;;;;;;;4.43;3.42;;;20.00;99.90;;;19.81;64.45;97816.16;5043200;28;20056;-47
2022/06/06 07:26:49;;;;;;;5.05;3.90;;;20.00;99.90;;;19.79;64.47;97820.94;5043822;28;20079;-48
2022/06/06 07:29:21;;;;;;;4.65;3.88;;;19.90;99.90;;;19.73;64.11;97819.13;5041696;28;20042;-52
2022/06/06 07:32:28;;;;;;;8.07;4.55;;;19.80;99.90;;;19.58;64.83;97828.31;5043357;28;20053;-47
2022/06/06 07:36:06;;;;;;;10.05;5.07;;;19.70;99.90;;;19.44;64.74;97821.28;5043335;28;20056;-48
2022/06/06 07:39:06;;;;;;;6.15;4.72;;;19.40;99.90;;;19.52;65.04;97826.44;5041511;28;20061;-50
2022/06/06 07:42:04;;;;;;;6.65;4.93;;;19.50;99.90;;;19.59;65.23;97832.66;5043130;28;20243;-47
2022/06/06 07:44:41;;;;;;;5.32;4.43;;;19.70;99.90;;;19.63;64.54;97833.06;5042798;28;20053;-48
2022/06/06 07:47:27;;;;;;;5.07;4.32;;;19.80;99.90;;;19.64;64.83;97813.13;5043266;28;20049;-50
2022/06/06 07:50:06;;;;;;;4.20;3.80;;;19.70;99.90;;;19.61;63.94;97813.53;5043390;28;20053;-48
2022/06/06 07:53:01;;;;;;;6.43;4.25;;;19.70;99.90;;;19.63;63.13;97809.56;5043296;28;20262;-50
2022/06/06 07:55:45;;;;;;;8.45;5.43;;;19.80;99.90;;;19.74;63.63;97812.69;5042840;28;20061;-48
2022/06/06 07:58:16;;;;;;;5.15;4.18;;;19.90;99.90;;;19.81;63.58;97806.19;5041512;28;20064;-49
2022/06/06 08:01:09;;;;;;;5.57;4.57;;;20.00;99.90;;;19.83;63.28;97803.25;5042562;28;20045;-51
2022/06/06 08:04:03;;;;;;;4.30;3.90;;;20.00;99.90;;;19.94;63.49;97801.75;5041221;28;20053;-47
2022/06/06 08:06:47;;;;;;;4.30;3.90;;;20.20;99.90;;;20.09;63.48;97798.75;5041565;28;20056;-46
2022/06/06 08:09:37;;;;;;;4.50;4.10;;;20.40;99.90;;;20.16;62.78;97802.22;5040199;28;20063;-48
2022/06/06 08:12:48;;;;;;;4.68;3.75;;;20.40;99.90;;;20.26;62.77;97794.47;5041503;28;20053;-48
2022/06/06 08:15:48;;;;;;;4.82;4.32;;;20.60;99.90;;;20.38;62.26;97791.88;5041376;28;20041;-48
2022/06/06 08:18:34;;;;;;;5.50;4.05;;;20.70;97.40;;;20.48;62.01;97796.78;5040908;28;20049;-46
2022/06/06 08:21:16;;;;;;;6.35;4.68;;;20.80;98.50;;;20.57;61.69;97795.44;5042391;28;20048;-47
2022/06/06 08:23:45;;;;;;;4.50;3.28;;;20.90;97.40;;;20.59;59.57;97796.06;5042282;28;20049;-51
2022/06/06 08:26:15;;;;;;;4.97;3.30;;;20.90;92.20;;;20.69;59.71;97798.31;5040994;28;20336;-50
2022/06/06 08:28:48;;;;;;;3.58;3.28;;;21.10;91.20;;;20.78;58.76;97799.66;5041521;28;20057;-51
2022/06/06 08:31:18;;;;;;;3.25;2.95;;;21.10;89.20;;;20.80;57.90;97795.69;5042340;28;20049;-47
2022/06/06 08:33:47;;;;;;;4.22;3.33;;;21.20;87.80;;;20.76;55.96;97793.66;5042474;28;20053;-49
2022/06/06 08:36:39;;;;;;;3.40;2.67;;;21.10;84.00;;;20.83;55.32;97784.41;5040940;28;20045;-48
2022/06/06 08:39:28;;;;;;;3.22;2.70;;;21.20;78.50;;;20.88;56.08;97783.75;5041838;28;20275;-48
2022/06/06 08:42:53;;;;;;;3.90;2.75;;;21.20;78.20;;;20.89;55.80;97785.41;5041135;28;20060;-47
2022/06/06 08:45:42;;;;;;;4.07;2.80;;;21.20;80.90;;;20.84;55.10;97786.09;5038945;28;20055;-50
2022/06/06 08:49:02;;;;;;;3.67;2.67;;;21.00;75.00;;;20.74;52.57;97784.94;5039164;28;20294;-49
2022/06/06 08:51:52;;;;;;;2.70;2.47;;;20.90;73.70;;;20.58;53.33;97779.00;5040888;28;20060;-49
2022/06/06 08:54:28;;;;;;;3.63;2.72;;;20.60;72.60;;;20.49;54.10;97776.81;5042010;28;20225;-47
2022/06/06 08:57:26;;;;;;;3.25;2.40;;;20.50;74.60;;;20.48;53.31;97778.69;5041848;28;20045;-48
2022/06/06 09:00:18;;;;;;;4.25;2.50;;;20.60;72.90;;;20.37;51.80;97774.00;5042076;28;20053;-47
2022/06/06 09:03:04;;;;;;;3.95;2.60;;;20.50;69.70;;;20.38;53.17;97773.78;5042088;28;20049;-50
2022/06/06 09:05:53;;;;;;;4.10;2.90;;;20.50;70.30;;;20.38;53.89;97768.38;5041796;28;20041;-53
2022/06/06 09:08:52;;;;;;;4.15;2.70;;;20.50;71.50;;;20.34;54.27;97764.47;5041608;28;20108;-47
2022/06/06 09:11:44;;;;;;;3.00;2.70;;;20.40;71.70;;;20.38;54.48;97771.06;5039384;28;20063;-48
2022/06/06 09:14:48;;;;;;;3.10;2.80;;;20.50;72.10;;;20.43;55.10;97762.28;5042510;28;20049;-50
2022/06/06 09:17:56;;;;;;;3.40;2.47;;;20.50;72.30;;;20.49;53.82;97755.16;5045637;28;20041;-49
2022/06/06 09:20:50;;;;;;;3.00;2.60;;;20.60;71.60;;;20.58;53.88;97760.06;5046465;28;20049;-53
2022/06/06 09:23:55;;;;;;;3.42;2.15;;;20.80;67.50;;;20.69;51.86;97749.63;5045748;28;20049;-49
2022/06/06 09:27:10;;;;;;;2.75;2.45;;;20.90;67.00;;;20.83;53.56;97756.53;5045483;28;20148;-48
2022/06/06 09:30:14;;;;;;;2.65;2.40;;;21.20;66.60;;;20.95;51.55;97752.03;5045219;28;20076;-52
2022/06/06 09:33:54;;;;;;;2.25;2.03;;;21.50;63.30;;;21.10;52.07;97750.84;5044580;28;20045;-51
2022/06/06 09:36:46;;;;;;;5.57;2.70;;;21.60;62.50;;;21.24;53.12;97747.72;5043085;28;20164;-51
2022/06/06 09:39:40;;;;;;;5.20;2.45;;;21.70;66.60;;;21.34;52.09;97743.66;5029024;28;20053;-47
2022/06/06 09:42:32;;;;;;;6.57;2.80;;;21.90;61.90;;;21.45;52.02;97742.09;5045402;28;20049;-47
2022/06/06 09:46:00;;;;;;;2.25;2.05;;;21.90;65.00;;;21.61;51.80;97744.16;5044122;28;20247;-51
2022/06/06 09:48:46;;;;;;;4.43;2.53;;;22.10;61.50;;;21.78;51.99;97747.06;5044361;28;20060;-49
2022/06/06 09:51:51;;;;;;;2.80;2.45;;;22.30;62.50;;;21.90;50.98;97739.78;5044934;28;20045;-49
2022/06/06 10:02:01;;;;;;;4.15;2.38;;;22.50;59.30;;;21.88;48.48;97741.91;5044647;28;20057;-49
2022/06/06 10:05:10;;;;;;;7.38;3.00;;;22.20;55.00;;;21.72;50.40;97754.22;5045256;28;20055;-50
2022/06/06 10:08:28;;;;;;;3.63;2.75;;;21.90;62.10;;;21.43;51.35;97743.16;5044467;28;20049;-49
2022/06/06 10:11:04;;;;;;;3.13;2.83;;;21.70;64.70;;;21.35;51.60;97734.50;5043086;28;20203;-53
2022/06/06 10:14:22;;;;;;;5.30;2.60;;;21.40;64.40;;;21.30;51.22;97740.56;5044742;28;20059;-52
2022/06/06 10:17:07;;;;;;;3.60;3.15;;;21.40;63.80;;;21.13;51.28;97750.38;5052597;28;20080;-52
2022/06/06 10:20:21;;;;;;;2.97;2.55;;;21.30;64.20;;;21.11;51.89;97737.09;5043428;28;20054;-47
2022/06/06 10:23:31;;;;;;;4.70;3.08;;;21.20;64.70;;;21.18;51.37;97737.00;5044528;28;20045;-50
2022/06/06 10:26:48;;;;;;;3.90;2.30;;;21.30;62.40;;;21.15;51.33;97732.88;5043010;28;20049;-48
2022/06/06 10:30:11;;;;;;;7.00;3.97;;;21.30;62.10;;;21.26;51.90;97731.25;5044846;28;20063;-47
2022/06/06 10:33:03;;;;;;;2.90;2.63;;;21.40;63.70;;;21.21;48.95;97725.72;5043501;28;20068;-49
2022/06/06 10:36:04;;;;;;;3.35;3.05;;;21.40;58.70;;;21.26;49.64;97722.31;5043729;28;20059;-52
2022/06/06 10:38:45;;;;;;;3.33;2.60;;;21.50;59.60;;;21.33;50.62;97715.75;5043866;28;20045;-50
2022/06/06 10:41:27;;;;;;;4.15;2.65;;;21.60;61.50;;;21.26;49.33;97711.50;5044391;28;20244;-52
2022/06/06 10:44:52;;;;;;;3.75;2.95;;;21.60;59.20;;;21.27;49.91;97713.13;5043873;28;20348;-51
2022/06/06 10:47:40;;;;;;;3.08;2.30;;;21.60;59.20;;;21.37;49.05;97710.72;5043057;28;20068;-51
2022/06/06 10:50:30;;;;;;;3.70;2.20;;;21.60;58.00;;;21.41;48.74;97704.59;5044053;28;20049;-51
2022/06/06 10:53:43;;;;;;;2.40;1.95;;;21.60;58.30;;;21.46;48.96;97703.13;5045229;28;20053;-52
2022/06/06 10:56:28;;;;;;;2.22;1.95;;;21.70;55.50;;;21.53;48.43;97709.28;5029324;28;20049;-49
2022/06/06 10:59:09;;;;;;;4.47;2.55;;;21.80;56.50;;;21.57;47.83;97705.06;5043994;28;20049;-51
2022/06/06 11:02:22;;;;;;;2.67;2.08;;;21.90;56.00;;;21.61;48.78;97696.22;5043894;28;20228;-50
2022/06/06 11:05:11;;;;;;;2.33;1.88;;;21.90;57.20;;;21.75;48.64;97704.16;5043504;28;20045;-49
2022/06/06 11:08:03;;;;;;;3.17;2.28;;;22.10;57.10;;;21.87;48.08;97702.31;5042329;28;20049;-47
2022/06/06 11:11:11;;;;;;;2.83;2.25;;;22.30;54.80;;;22.00;46.78;97685.84;5044114;28;20053;-51
2022/06/06 11:13:45;;;;;;;6.05;2.58;;;22.50;51.60;;;22.13;44.61;97682.06;5042435;28;20363;-52
2022/06/06 11:16:49;;;;;;;3.83;2.08;;;22.70;49.90;;;22.27;44.72;97684.59;5043335;28;20041;-50
2022/06/06 11:19:55;;;;;;;2.45;1.98;;;22.90;48.60;;;22.34;44.45;97685.31;5043352;28;20041;-50
2022/06/06 11:22:50;;;;;;;2.95;2.15;;;22.90;48.60;;;22.34;42.18;97679.88;5043356;28;20186;-48
2022/06/06 11:25:21;;;;;;;4.10;2.10;;;22.90;47.40;;;22.45;43.92;97675.50;5043374;28;20060;-49
2022/06/06 11:28:26;;;;;;;4.78;2.33;;;22.90;50.10;;;22.36;41.53;97683.19;5041768;28;20049;-50
2022/06/06 11:31:28;;;;;;;2.35;2.15;;;22.90;47.00;;;22.53;43.67;97672.44;5043192;28;20049;-48
2022/06/06 11:34:37;;;;;;;2.88;2.03;;;23.00;50.00;;;22.52;41.47;97677.03;5042292;28;20060;-50
2022/06/06 11:37:54;;;;;;;3.38;1.90;;;23.00;46.80;;;22.43;41.36;97667.63;5042149;28;20039;-50
2022/06/06 11:40:40;;;;;;;3.58;1.90;;;22.80;45.60;;;22.44;40.62;97674.69;5043357;28;20056;-52
2022/06/06 11:43:35;;;;;;;3.70;2.42;;;22.80;46.50;;;22.44;40.11;97671.97;5042886;28;20052;-49
2022/06/06 11:46:50;;;;;;;2.33;1.60;;;22.80;46.00;;;22.40;41.31;97678.94;5042941;28;20053;-47
2022/06/06 11:49:45;;;;;;;5.40;3.42;;;22.70;45.40;;;22.23;43.15;97681.50;5041886;28;20053;-50
2022/06/06 11:53:12;;;;;;;5.63;2.53;;;22.50;50.40;;;22.14;43.92;97678.31;5042869;28;20098;-50
2022/06/06 11:56:19;;;;;;;4.25;3.35;;;22.30;51.40;;;21.84;43.75;97675.69;5040503;28;20260;-49
2022/06/06 11:59:17;;;;;;;3.95;2.60;;;22.00;51.70;;;21.66;44.70;97678.47;5026764;28;20041;-50
2022/06/06 12:02:45;;;;;;;3.63;2.22;;;21.70;53.10;;;21.53;44.79;97683.00;5042691;28;20352;-52
2022/06/06 12:05:30;;;;;;;4.35;1.95;;;21.70;53.90;;;21.68;45.34;97679.88;5042607;28;20045;-51
2022/06/06 12:08:27;;;;;;;3.42;2.10;;;21.70;53.50;;;21.70;44.90;97669.66;5042238;28;20060;-50
2022/06/06 12:11:23;;;;;;;2.83;2.28;;;21.70;53.20;;;21.60;44.61;97666.69;5041326;28;20251;-51
2022/06/06 12:14:38;;;;;;;2.72;1.80;;;21.70;53.10;;;21.66;44.95;97670.34;5043022;28;20056;-53
2022/06/06 12:17:23;;;;;;;3.67;3.35;;;21.80;52.70;;;21.61;44.94;97666.44;5041777;28;20057;-48